sensor_id;sensor_type;location;lat;lon;timestamp;P1;durP1;ratioP1;P2;durP2;ratioP2
49177;SDS011;35016;55.674;37.468;2022-08-21T00:00:14;31.00;;;27.35;;
49177;SDS011;35016;55.674;37.468;2022-08-21T00:02:49;34.22;;;30.08;;
49177;SDS011;35016;55.674;37.468;2022-08-21T00:05:19;33.22;;;29.90;;
49177;SDS011;35016;55.674;37.468;2022-08-21T00:07:47;34.75;;;30.98;;
49177;SDS011;35016;55.674;37.468;2022-08-21T00:10:14;36.63;;;32.88;;
49177;SDS011;35016;55.674;37.468;2022-08-21T00:12:42;33.00;;;29.73;;
49177;SDS011;35016;55.674;37.468;2022-08-21T00:15:11;36.55;;;32.88;;
49177;SDS011;35016;55.674;37.468;2022-08-21T00:17:41;35.55;;;32.28;;
49177;SDS011;35016;55.674;37.468;2022-08-21T00:20:09;35.92;;;32.20;;
49177;SDS011;35016;55.674;37.468;2022-08-21T00:22:38;33.75;;;30.42;;
49177;SDS011;35016;55.674;37.468;2022-08-21T00:25:06;37.00;;;33.40;;
49177;SDS011;35016;55.674;37.468;2022-08-21T00:27:34;36.63;;;33.13;;
49177;SDS011;35016;55.674;37.468;2022-08-21T00:30:03;38.45;;;34.45;;
49177;SDS011;35016;55.674;37.468;2022-08-21T00:32:32;37.38;;;33.53;;
49177;SDS011;35016;55.674;37.468;2022-08-21T00:34:59;39.40;;;35.08;;
49177;SDS011;35016;55.674;37.468;2022-08-21T00:37:26;37.50;;;33.75;;
49177;SDS011;35016;55.674;37.468;2022-08-21T00:39:55;35.53;;;31.77;;
49177;SDS011;35016;55.674;37.468;2022-08-21T00:42:23;40.13;;;35.80;;
49177;SDS011;35016;55.674;37.468;2022-08-21T00:44:50;40.03;;;36.05;;
49177;SDS011;35016;55.674;37.468;2022-08-21T00:47:18;38.53;;;34.00;;
49177;SDS011;35016;55.674;37.468;2022-08-21T00:49:45;39.47;;;35.38;;
49177;SDS011;35016;55.674;37.468;2022-08-21T00:52:14;41.00;;;36.65;;
49177;SDS011;35016;55.674;37.468;2022-08-21T00:54:44;37.13;;;33.17;;
49177;SDS011;35016;55.674;37.468;2022-08-21T00:57:15;41.40;;;37.28;;
49177;SDS011;35016;55.674;37.468;2022-08-21T00:59:51;39.30;;;34.35;;
49177;SDS011;35016;55.674;37.468;2022-08-21T01:02:22;41.53;;;37.30;;
49177;SDS011;35016;55.674;37.468;2022-08-21T01:04:49;41.67;;;36.97;;
49177;SDS011;35016;55.674;37.468;2022-08-21T01:07:17;39.95;;;35.80;;
49177;SDS011;35016;55.674;37.468;2022-08-21T01:09:48;40.45;;;36.53;;
49177;SDS011;35016;55.674;37.468;2022-08-21T01:12:15;38.40;;;34.50;;
49177;SDS011;35016;55.674;37.468;2022-08-21T01:14:43;38.60;;;34.55;;
49177;SDS011;35016;55.674;37.468;2022-08-21T01:17:11;37.38;;;33.50;;
49177;SDS011;35016;55.674;37.468;2022-08-21T01:19:40;41.63;;;37.28;;
49177;SDS011;35016;55.674;37.468;2022-08-21T01:22:09;42.50;;;38.17;;
49177;SDS011;35016;55.674;37.468;2022-08-21T01:24:36;37.75;;;33.95;;
49177;SDS011;35016;55.674;37.468;2022-08-21T01:27:03;39.50;;;35.50;;
49177;SDS011;35016;55.674;37.468;2022-08-21T01:29:36;37.38;;;33.40;;
49177;SDS011;35016;55.674;37.468;2022-08-21T01:32:14;37.47;;;33.50;;
49177;SDS011;35016;55.674;37.468;2022-08-21T01:34:46;39.45;;;35.42;;
49177;SDS011;35016;55.674;37.468;2022-08-21T01:37:16;36.33;;;32.45;;
49177;SDS011;35016;55.674;37.468;2022-08-21T01:39:45;37.67;;;33.67;;
49177;SDS011;35016;55.674;37.468;2022-08-21T01:42:16;38.30;;;34.35;;
49177;SDS011;35016;55.674;37.468;2022-08-21T01:44:43;41.78;;;37.30;;
49177;SDS011;35016;55.674;37.468;2022-08-21T01:47:11;38.90;;;35.05;;
49177;SDS011;35016;55.674;37.468;2022-08-21T01:49:43;40.60;;;33.75;;
49177;SDS011;35016;55.674;37.468;2022-08-21T01:52:11;36.78;;;32.90;;
49177;SDS011;35016;55.674;37.468;2022-08-21T01:54:38;35.25;;;31.58;;
49177;SDS011;35016;55.674;37.468;2022-08-21T01:57:05;38.60;;;33.03;;
49177;SDS011;35016;55.674;37.468;2022-08-21T01:59:34;41.40;;;33.53;;
49177;SDS011;35016;55.674;37.468;2022-08-21T02:02:02;37.17;;;33.20;;
49177;SDS011;35016;55.674;37.468;2022-08-21T02:04:30;35.50;;;31.77;;
49177;SDS011;35016;55.674;37.468;2022-08-21T02:06:57;34.63;;;31.13;;
49177;SDS011;35016;55.674;37.468;2022-08-21T02:09:24;36.55;;;31.77;;
49177;SDS011;35016;55.674;37.468;2022-08-21T02:11:52;34.35;;;30.65;;
49177;SDS011;35016;55.674;37.468;2022-08-21T02:14:20;33.40;;;30.08;;
49177;SDS011;35016;55.674;37.468;2022-08-21T02:16:58;34.00;;;30.58;;
49177;SDS011;35016;55.674;37.468;2022-08-21T02:19:35;31.27;;;28.15;;
49177;SDS011;35016;55.674;37.468;2022-08-21T02:22:07;33.13;;;29.05;;
49177;SDS011;35016;55.674;37.468;2022-08-21T02:24:36;35.08;;;31.48;;
49177;SDS011;35016;55.674;37.468;2022-08-21T02:27:19;31.75;;;27.75;;
49177;SDS011;35016;55.674;37.468;2022-08-21T02:29:53;35.83;;;29.85;;
49177;SDS011;35016;55.674;37.468;2022-08-21T02:32:22;32.83;;;29.10;;
49177;SDS011;35016;55.674;37.468;2022-08-21T02:34:49;31.35;;;28.13;;
49177;SDS011;35016;55.674;37.468;2022-08-21T02:37:16;32.88;;;29.33;;
49177;SDS011;35016;55.674;37.468;2022-08-21T02:39:43;31.50;;;27.48;;
49177;SDS011;35016;55.674;37.468;2022-08-21T02:42:10;31.38;;;28.05;;
49177;SDS011;35016;55.674;37.468;2022-08-21T02:44:37;34.25;;;27.58;;
49177;SDS011;35016;55.674;37.468;2022-08-21T02:47:04;31.27;;;27.15;;
49177;SDS011;35016;55.674;37.468;2022-08-21T02:49:32;32.83;;;28.08;;
49177;SDS011;35016;55.674;37.468;2022-08-21T02:51:59;30.48;;;27.02;;
49177;SDS011;35016;55.674;37.468;2022-08-21T02:54:26;32.03;;;28.60;;
49177;SDS011;35016;55.674;37.468;2022-08-21T02:56:53;30.48;;;26.95;;
49177;SDS011;35016;55.674;37.468;2022-08-21T02:59:20;29.63;;;26.52;;
49177;SDS011;35016;55.674;37.468;2022-08-21T03:01:47;28.98;;;25.92;;
49177;SDS011;35016;55.674;37.468;2022-08-21T03:04:15;35.42;;;24.65;;
49177;SDS011;35016;55.674;37.468;2022-08-21T03:06:42;26.35;;;23.52;;
49177;SDS011;35016;55.674;37.468;2022-08-21T03:09:09;30.92;;;27.40;;
49177;SDS011;35016;55.674;37.468;2022-08-21T03:11:36;27.73;;;24.77;;
49177;SDS011;35016;55.674;37.468;2022-08-21T03:14:03;30.52;;;24.42;;
49177;SDS011;35016;55.674;37.468;2022-08-21T03:16:31;29.08;;;25.30;;
49177;SDS011;35016;55.674;37.468;2022-08-21T03:19:00;28.23;;;24.83;;
49177;SDS011;35016;55.674;37.468;2022-08-21T03:21:28;27.05;;;24.35;;
49177;SDS011;35016;55.674;37.468;2022-08-21T03:23:55;29.88;;;24.85;;
49177;SDS011;35016;55.674;37.468;2022-08-21T03:26:22;25.30;;;22.65;;
49177;SDS011;35016;55.674;37.468;2022-08-21T03:28:53;27.88;;;24.15;;
49177;SDS011;35016;55.674;37.468;2022-08-21T03:31:20;26.95;;;24.13;;
49177;SDS011;35016;55.674;37.468;2022-08-21T03:33:48;27.38;;;24.25;;
49177;SDS011;35016;55.674;37.468;2022-08-21T03:36:15;25.40;;;22.65;;
49177;SDS011;35016;55.674;37.468;2022-08-21T03:38:42;25.10;;;22.40;;
49177;SDS011;35016;55.674;37.468;2022-08-21T03:41:09;24.48;;;22.02;;
49177;SDS011;35016;55.674;37.468;2022-08-21T03:43:36;24.95;;;22.30;;
49177;SDS011;35016;55.674;37.468;2022-08-21T03:46:05;23.70;;;21.20;;
49177;SDS011;35016;55.674;37.468;2022-08-21T03:48:33;24.45;;;21.85;;
49177;SDS011;35016;55.674;37.468;2022-08-21T03:51:02;26.15;;;20.42;;
49177;SDS011;35016;55.674;37.468;2022-08-21T03:53:29;26.58;;;22.42;;
49177;SDS011;35016;55.674;37.468;2022-08-21T03:55:57;24.85;;;21.27;;
49177;SDS011;35016;55.674;37.468;2022-08-21T03:58:25;25.30;;;20.58;;
49177;SDS011;35016;55.674;37.468;2022-08-21T04:00:55;25.55;;;20.67;;
49177;SDS011;35016;55.674;37.468;2022-08-21T04:03:23;23.88;;;20.17;;
49177;SDS011;35016;55.674;37.468;2022-08-21T04:05:51;22.63;;;19.23;;
49177;SDS011;35016;55.674;37.468;2022-08-21T04:08:18;23.30;;;17.98;;
49177;SDS011;35016;55.674;37.468;2022-08-21T04:10:47;21.08;;;18.85;;
49177;SDS011;35016;55.674;37.468;2022-08-21T04:13:17;22.15;;;19.73;;
49177;SDS011;35016;55.674;37.468;2022-08-21T04:15:44;22.42;;;19.65;;
49177;SDS011;35016;55.674;37.468;2022-08-21T04:18:19;22.27;;;19.88;;
49177;SDS011;35016;55.674;37.468;2022-08-21T04:20:50;24.95;;;22.35;;
49177;SDS011;35016;55.674;37.468;2022-08-21T04:23:19;25.63;;;20.25;;
49177;SDS011;35016;55.674;37.468;2022-08-21T04:25:50;25.65;;;21.20;;
49177;SDS011;35016;55.674;37.468;2022-08-21T04:28:18;21.45;;;19.17;;
49177;SDS011;35016;55.674;37.468;2022-08-21T04:30:45;22.58;;;19.77;;
49177;SDS011;35016;55.674;37.468;2022-08-21T04:33:13;22.27;;;19.98;;
49177;SDS011;35016;55.674;37.468;2022-08-21T04:35:40;24.02;;;21.38;;
49177;SDS011;35016;55.674;37.468;2022-08-21T04:38:08;24.38;;;21.95;;
49177;SDS011;35016;55.674;37.468;2022-08-21T04:40:35;22.60;;;19.05;;
49177;SDS011;35016;55.674;37.468;2022-08-21T04:43:04;27.17;;;22.67;;
49177;SDS011;35016;55.674;37.468;2022-08-21T04:45:34;24.70;;;22.23;;
49177;SDS011;35016;55.674;37.468;2022-08-21T04:48:14;23.90;;;21.27;;
49177;SDS011;35016;55.674;37.468;2022-08-21T04:53:23;26.00;;;21.27;;
49177;SDS011;35016;55.674;37.468;2022-08-21T04:55:54;26.80;;;24.15;;
49177;SDS011;35016;55.674;37.468;2022-08-21T04:58:27;25.88;;;23.08;;
49177;SDS011;35016;55.674;37.468;2022-08-21T05:00:56;24.33;;;21.38;;
49177;SDS011;35016;55.674;37.468;2022-08-21T05:03:27;27.25;;;24.33;;
49177;SDS011;35016;55.674;37.468;2022-08-21T05:06:00;27.30;;;22.55;;
49177;SDS011;35016;55.674;37.468;2022-08-21T05:09:07;26.48;;;23.73;;
49177;SDS011;35016;55.674;37.468;2022-08-21T05:11:28;26.63;;;23.83;;
49177;SDS011;35016;55.674;37.468;2022-08-21T05:14:01;25.80;;;23.17;;
49177;SDS011;35016;55.674;37.468;2022-08-21T05:16:29;28.42;;;23.55;;
49177;SDS011;35016;55.674;37.468;2022-08-21T05:19:03;28.98;;;24.67;;
49177;SDS011;35016;55.674;37.468;2022-08-21T05:21:34;26.63;;;23.88;;
49177;SDS011;35016;55.674;37.468;2022-08-21T05:24:02;27.40;;;24.50;;
49177;SDS011;35016;55.674;37.468;2022-08-21T05:26:32;30.13;;;26.90;;
49177;SDS011;35016;55.674;37.468;2022-08-21T05:29:10;31.58;;;28.25;;
49177;SDS011;35016;55.674;37.468;2022-08-21T05:31:39;28.80;;;25.70;;
49177;SDS011;35016;55.674;37.468;2022-08-21T05:34:06;29.00;;;25.95;;
49177;SDS011;35016;55.674;37.468;2022-08-21T05:36:35;29.13;;;26.05;;
49177;SDS011;35016;55.674;37.468;2022-08-21T05:39:05;31.83;;;27.73;;
49177;SDS011;35016;55.674;37.468;2022-08-21T05:41:32;31.77;;;28.25;;
49177;SDS011;35016;55.674;37.468;2022-08-21T05:43:59;33.17;;;29.73;;
49177;SDS011;35016;55.674;37.468;2022-08-21T05:46:27;31.50;;;27.02;;
49177;SDS011;35016;55.674;37.468;2022-08-21T05:48:54;33.30;;;29.63;;
49177;SDS011;35016;55.674;37.468;2022-08-21T05:51:22;32.67;;;28.90;;
49177;SDS011;35016;55.674;37.468;2022-08-21T05:53:52;31.02;;;28.13;;
49177;SDS011;35016;55.674;37.468;2022-08-21T05:56:20;30.70;;;27.60;;
49177;SDS011;35016;55.674;37.468;2022-08-21T05:58:48;31.92;;;28.02;;
49177;SDS011;35016;55.674;37.468;2022-08-21T06:01:15;32.63;;;29.25;;
49177;SDS011;35016;55.674;37.468;2022-08-21T06:03:43;29.95;;;26.88;;
49177;SDS011;35016;55.674;37.468;2022-08-21T06:06:11;32.38;;;28.45;;
49177;SDS011;35016;55.674;37.468;2022-08-21T06:08:41;32.53;;;27.55;;
49177;SDS011;35016;55.674;37.468;2022-08-21T06:11:09;34.47;;;30.25;;
49177;SDS011;35016;55.674;37.468;2022-08-21T06:13:37;31.75;;;26.50;;
49177;SDS011;35016;55.674;37.468;2022-08-21T06:16:09;32.53;;;27.77;;
49177;SDS011;35016;55.674;37.468;2022-08-21T06:18:42;30.95;;;27.95;;
49177;SDS011;35016;55.674;37.468;2022-08-21T06:21:11;30.45;;;27.10;;
49177;SDS011;35016;55.674;37.468;2022-08-21T06:23:39;33.20;;;29.60;;
49177;SDS011;35016;55.674;37.468;2022-08-21T06:26:07;32.10;;;28.85;;
49177;SDS011;35016;55.674;37.468;2022-08-21T06:28:35;30.35;;;27.27;;
49177;SDS011;35016;55.674;37.468;2022-08-21T06:31:13;31.33;;;26.63;;
49177;SDS011;35016;55.674;37.468;2022-08-21T06:33:42;28.45;;;25.42;;
49177;SDS011;35016;55.674;37.468;2022-08-21T06:36:09;30.25;;;27.13;;
49177;SDS011;35016;55.674;37.468;2022-08-21T06:38:37;29.30;;;26.20;;
49177;SDS011;35016;55.674;37.468;2022-08-21T06:41:05;30.35;;;27.10;;
49177;SDS011;35016;55.674;37.468;2022-08-21T06:43:32;29.83;;;26.73;;
49177;SDS011;35016;55.674;37.468;2022-08-21T06:46:05;30.00;;;26.88;;
49177;SDS011;35016;55.674;37.468;2022-08-21T06:48:34;27.83;;;24.20;;
49177;SDS011;35016;55.674;37.468;2022-08-21T06:51:01;27.65;;;24.73;;
49177;SDS011;35016;55.674;37.468;2022-08-21T06:53:29;28.05;;;25.17;;
49177;SDS011;35016;55.674;37.468;2022-08-21T06:55:56;28.08;;;25.20;;
49177;SDS011;35016;55.674;37.468;2022-08-21T06:58:23;31.63;;;24.95;;
49177;SDS011;35016;55.674;37.468;2022-08-21T07:00:50;30.33;;;26.83;;
49177;SDS011;35016;55.674;37.468;2022-08-21T07:03:25;30.08;;;26.88;;
49177;SDS011;35016;55.674;37.468;2022-08-21T07:05:55;27.98;;;24.85;;
49177;SDS011;35016;55.674;37.468;2022-08-21T07:08:23;30.75;;;27.00;;
49177;SDS011;35016;55.674;37.468;2022-08-21T07:10:51;29.00;;;23.90;;
49177;SDS011;35016;55.674;37.468;2022-08-21T07:13:20;28.02;;;25.08;;
49177;SDS011;35016;55.674;37.468;2022-08-21T07:15:47;26.02;;;23.30;;
49177;SDS011;35016;55.674;37.468;2022-08-21T07:18:14;29.70;;;25.17;;
49177;SDS011;35016;55.674;37.468;2022-08-21T07:20:41;28.15;;;25.27;;
49177;SDS011;35016;55.674;37.468;2022-08-21T07:23:11;28.77;;;25.50;;
49177;SDS011;35016;55.674;37.468;2022-08-21T07:25:43;31.20;;;26.75;;
49177;SDS011;35016;55.674;37.468;2022-08-21T07:28:10;26.55;;;23.52;;
49177;SDS011;35016;55.674;37.468;2022-08-21T07:30:36;27.52;;;24.60;;
49177;SDS011;35016;55.674;37.468;2022-08-21T07:33:03;28.98;;;25.88;;
49177;SDS011;35016;55.674;37.468;2022-08-21T07:35:30;26.70;;;24.00;;
49177;SDS011;35016;55.674;37.468;2022-08-21T07:37:59;27.58;;;24.42;;
49177;SDS011;35016;55.674;37.468;2022-08-21T07:40:26;27.05;;;24.17;;
49177;SDS011;35016;55.674;37.468;2022-08-21T07:42:53;29.20;;;22.17;;
49177;SDS011;35016;55.674;37.468;2022-08-21T07:45:22;25.50;;;22.77;;
49177;SDS011;35016;55.674;37.468;2022-08-21T07:47:50;25.15;;;22.10;;
49177;SDS011;35016;55.674;37.468;2022-08-21T07:50:23;30.42;;;23.60;;
49177;SDS011;35016;55.674;37.468;2022-08-21T07:52:50;27.42;;;24.05;;
49177;SDS011;35016;55.674;37.468;2022-08-21T07:55:19;24.50;;;21.70;;
49177;SDS011;35016;55.674;37.468;2022-08-21T07:57:48;25.20;;;22.52;;
49177;SDS011;35016;55.674;37.468;2022-08-21T08:00:17;24.92;;;22.33;;
49177;SDS011;35016;55.674;37.468;2022-08-21T08:02:47;26.40;;;22.27;;
49177;SDS011;35016;55.674;37.468;2022-08-21T08:05:19;25.70;;;21.38;;
49177;SDS011;35016;55.674;37.468;2022-08-21T08:07:48;25.48;;;21.75;;
49177;SDS011;35016;55.674;37.468;2022-08-21T08:10:16;25.65;;;22.70;;
49177;SDS011;35016;55.674;37.468;2022-08-21T08:12:43;23.02;;;20.58;;
49177;SDS011;35016;55.674;37.468;2022-08-21T08:15:13;25.00;;;22.52;;
49177;SDS011;35016;55.674;37.468;2022-08-21T08:17:42;23.05;;;20.70;;
49177;SDS011;35016;55.674;37.468;2022-08-21T08:20:10;24.08;;;20.02;;
49177;SDS011;35016;55.674;37.468;2022-08-21T08:22:39;23.83;;;21.23;;
49177;SDS011;35016;55.674;37.468;2022-08-21T08:25:08;23.58;;;20.67;;
49177;SDS011;35016;55.674;37.468;2022-08-21T08:27:37;22.75;;;20.33;;
49177;SDS011;35016;55.674;37.468;2022-08-21T08:30:05;25.65;;;22.02;;
49177;SDS011;35016;55.674;37.468;2022-08-21T08:32:34;23.88;;;21.17;;
49177;SDS011;35016;55.674;37.468;2022-08-21T08:35:02;23.95;;;21.42;;
49177;SDS011;35016;55.674;37.468;2022-08-21T08:37:32;23.52;;;19.17;;
49177;SDS011;35016;55.674;37.468;2022-08-21T08:40:00;25.98;;;23.27;;
49177;SDS011;35016;55.674;37.468;2022-08-21T08:42:31;21.98;;;19.85;;
49177;SDS011;35016;55.674;37.468;2022-08-21T08:45:12;27.50;;;21.27;;
49177;SDS011;35016;55.674;37.468;2022-08-21T08:47:47;23.48;;;20.95;;
49177;SDS011;35016;55.674;37.468;2022-08-21T08:50:19;25.80;;;23.00;;
49177;SDS011;35016;55.674;37.468;2022-08-21T08:52:54;27.38;;;21.73;;
49177;SDS011;35016;55.674;37.468;2022-08-21T08:58:01;26.63;;;23.50;;
49177;SDS011;35016;55.674;37.468;2022-08-21T09:00:30;25.75;;;23.13;;
49177;SDS011;35016;55.674;37.468;2022-08-21T09:03:00;24.52;;;21.85;;
49177;SDS011;35016;55.674;37.468;2022-08-21T09:05:43;27.15;;;23.05;;
49177;SDS011;35016;55.674;37.468;2022-08-21T09:08:34;28.15;;;23.45;;
49177;SDS011;35016;55.674;37.468;2022-08-21T09:11:42;26.20;;;21.90;;
49177;SDS011;35016;55.674;37.468;2022-08-21T09:14:05;23.63;;;20.75;;
49177;SDS011;35016;55.674;37.468;2022-08-21T09:20:18;23.52;;;20.42;;
49177;SDS011;35016;55.674;37.468;2022-08-21T09:25:28;18.65;;;16.60;;
49177;SDS011;35016;55.674;37.468;2022-08-21T09:27:58;26.25;;;18.58;;
49177;SDS011;35016;55.674;37.468;2022-08-21T09:30:27;22.52;;;17.48;;
49177;SDS011;35016;55.674;37.468;2022-08-21T09:35:26;23.20;;;15.27;;
49177;SDS011;35016;55.674;37.468;2022-08-21T09:43:07;21.05;;;16.65;;
49177;SDS011;35016;55.674;37.468;2022-08-21T09:45:46;18.92;;;15.57;;
49177;SDS011;35016;55.674;37.468;2022-08-21T09:48:17;19.65;;;16.73;;
49177;SDS011;35016;55.674;37.468;2022-08-21T09:50:47;23.10;;;17.48;;
49177;SDS011;35016;55.674;37.468;2022-08-21T09:53:19;18.08;;;15.82;;
49177;SDS011;35016;55.674;37.468;2022-08-21T09:56:04;21.75;;;15.45;;
49177;SDS011;35016;55.674;37.468;2022-08-21T09:59:12;21.58;;;14.73;;
49177;SDS011;35016;55.674;37.468;2022-08-21T10:01:42;18.73;;;13.05;;
49177;SDS011;35016;55.674;37.468;2022-08-21T10:04:12;19.90;;;13.85;;
49177;SDS011;35016;55.674;37.468;2022-08-21T10:06:39;17.77;;;12.77;;
49177;SDS011;35016;55.674;37.468;2022-08-21T10:09:09;16.23;;;11.98;;
49177;SDS011;35016;55.674;37.468;2022-08-21T10:14:54;17.55;;;11.68;;
49177;SDS011;35016;55.674;37.468;2022-08-21T10:17:55;15.90;;;10.73;;
49177;SDS011;35016;55.674;37.468;2022-08-21T10:23:23;17.08;;;10.93;;
49177;SDS011;35016;55.674;37.468;2022-08-21T10:28:46;12.43;;;8.05;;
49177;SDS011;35016;55.674;37.468;2022-08-21T10:43:32;12.05;;;6.05;;
49177;SDS011;35016;55.674;37.468;2022-08-21T10:48:47;11.70;;;6.78;;
49177;SDS011;35016;55.674;37.468;2022-08-21T10:51:35;12.88;;;6.40;;
49177;SDS011;35016;55.674;37.468;2022-08-21T10:56:59;10.73;;;6.63;;
49177;SDS011;35016;55.674;37.468;2022-08-21T10:59:39;12.23;;;6.53;;
49177;SDS011;35016;55.674;37.468;2022-08-21T11:02:15;11.45;;;6.07;;
49177;SDS011;35016;55.674;37.468;2022-08-21T11:05:06;9.43;;;5.05;;
49177;SDS011;35016;55.674;37.468;2022-08-21T11:07:38;10.23;;;4.30;;
49177;SDS011;35016;55.674;37.468;2022-08-21T11:10:27;12.73;;;4.75;;
49177;SDS011;35016;55.674;37.468;2022-08-21T11:13:47;11.07;;;5.00;;
49177;SDS011;35016;55.674;37.468;2022-08-21T11:16:03;9.43;;;4.78;;
49177;SDS011;35016;55.674;37.468;2022-08-21T11:18:38;10.52;;;4.22;;
49177;SDS011;35016;55.674;37.468;2022-08-21T11:29:56;8.73;;;3.17;;
49177;SDS011;35016;55.674;37.468;2022-08-21T11:35:05;8.85;;;3.10;;
49177;SDS011;35016;55.674;37.468;2022-08-21T11:43:39;11.27;;;3.53;;
49177;SDS011;35016;55.674;37.468;2022-08-21T11:54:42;11.63;;;4.18;;
49177;SDS011;35016;55.674;37.468;2022-08-21T11:57:32;10.20;;;4.38;;
49177;SDS011;35016;55.674;37.468;2022-08-21T12:02:41;11.90;;;6.07;;
49177;SDS011;35016;55.674;37.468;2022-08-21T12:06:14;10.65;;;5.05;;
49177;SDS011;35016;55.674;37.468;2022-08-21T12:08:31;12.93;;;6.45;;
49177;SDS011;35016;55.674;37.468;2022-08-21T12:16:32;14.98;;;7.10;;
49177;SDS011;35016;55.674;37.468;2022-08-21T12:24:19;10.68;;;5.85;;
49177;SDS011;35016;55.674;37.468;2022-08-21T12:27:21;11.40;;;4.78;;
49177;SDS011;35016;55.674;37.468;2022-08-21T12:30:00;12.27;;;4.93;;
49177;SDS011;35016;55.674;37.468;2022-08-21T12:33:21;12.02;;;4.82;;
49177;SDS011;35016;55.674;37.468;2022-08-21T12:35:26;9.27;;;3.97;;
49177;SDS011;35016;55.674;37.468;2022-08-21T12:38:29;16.60;;;3.75;;
49177;SDS011;35016;55.674;37.468;2022-08-21T12:41:02;10.63;;;3.30;;
49177;SDS011;35016;55.674;37.468;2022-08-21T12:46:17;8.82;;;3.15;;
49177;SDS011;35016;55.674;37.468;2022-08-21T12:51:31;7.90;;;2.20;;
49177;SDS011;35016;55.674;37.468;2022-08-21T12:54:04;9.07;;;3.00;;
49177;SDS011;35016;55.674;37.468;2022-08-21T12:56:33;11.38;;;2.33;;
49177;SDS011;35016;55.674;37.468;2022-08-21T12:59:03;12.73;;;3.95;;
49177;SDS011;35016;55.674;37.468;2022-08-21T13:01:35;10.18;;;2.80;;
49177;SDS011;35016;55.674;37.468;2022-08-21T13:04:15;8.57;;;3.42;;
49177;SDS011;35016;55.674;37.468;2022-08-21T13:06:47;8.38;;;3.40;;
49177;SDS011;35016;55.674;37.468;2022-08-21T13:09:20;10.27;;;3.38;;
49177;SDS011;35016;55.674;37.468;2022-08-21T13:11:52;8.35;;;3.83;;
49177;SDS011;35016;55.674;37.468;2022-08-21T13:14:23;10.32;;;3.53;;
49177;SDS011;35016;55.674;37.468;2022-08-21T13:16:53;12.27;;;4.30;;
49177;SDS011;35016;55.674;37.468;2022-08-21T13:19:57;9.40;;;3.33;;
49177;SDS011;35016;55.674;37.468;2022-08-21T13:25:24;9.88;;;4.13;;
49177;SDS011;35016;55.674;37.468;2022-08-21T13:28:06;8.52;;;4.35;;
49177;SDS011;35016;55.674;37.468;2022-08-21T13:30:38;8.73;;;4.05;;
49177;SDS011;35016;55.674;37.468;2022-08-21T13:33:10;9.88;;;4.35;;
49177;SDS011;35016;55.674;37.468;2022-08-21T13:38:14;11.02;;;4.70;;
49177;SDS011;35016;55.674;37.468;2022-08-21T13:40:57;9.93;;;4.80;;
49177;SDS011;35016;55.674;37.468;2022-08-21T13:43:31;10.13;;;4.00;;
49177;SDS011;35016;55.674;37.468;2022-08-21T13:46:01;11.65;;;5.45;;
49177;SDS011;35016;55.674;37.468;2022-08-21T13:48:34;9.27;;;3.78;;
49177;SDS011;35016;55.674;37.468;2022-08-21T13:51:07;9.07;;;4.25;;
49177;SDS011;35016;55.674;37.468;2022-08-21T13:56:25;8.48;;;2.97;;
49177;SDS011;35016;55.674;37.468;2022-08-21T13:58:58;11.30;;;4.57;;
49177;SDS011;35016;55.674;37.468;2022-08-21T14:01:50;11.38;;;4.00;;
49177;SDS011;35016;55.674;37.468;2022-08-21T14:10:12;12.68;;;5.00;;
49177;SDS011;35016;55.674;37.468;2022-08-21T14:12:43;10.02;;;3.80;;
49177;SDS011;35016;55.674;37.468;2022-08-21T14:15:16;10.45;;;3.97;;
49177;SDS011;35016;55.674;37.468;2022-08-21T14:17:48;12.35;;;3.50;;
49177;SDS011;35016;55.674;37.468;2022-08-21T14:20:26;12.32;;;3.28;;
49177;SDS011;35016;55.674;37.468;2022-08-21T14:23:40;9.07;;;3.45;;
49177;SDS011;35016;55.674;37.468;2022-08-21T14:26:08;11.52;;;4.47;;
49177;SDS011;35016;55.674;37.468;2022-08-21T14:28:40;9.55;;;3.88;;
49177;SDS011;35016;55.674;37.468;2022-08-21T14:34:14;10.73;;;4.35;;
49177;SDS011;35016;55.674;37.468;2022-08-21T14:36:46;13.60;;;4.60;;
49177;SDS011;35016;55.674;37.468;2022-08-21T14:39:15;12.23;;;5.47;;
49177;SDS011;35016;55.674;37.468;2022-08-21T14:41:42;14.38;;;5.88;;
49177;SDS011;35016;55.674;37.468;2022-08-21T14:44:12;13.10;;;7.30;;
49177;SDS011;35016;55.674;37.468;2022-08-21T14:46:40;13.77;;;6.35;;
49177;SDS011;35016;55.674;37.468;2022-08-21T14:49:22;12.48;;;5.57;;
49177;SDS011;35016;55.674;37.468;2022-08-21T14:51:53;12.73;;;6.20;;
49177;SDS011;35016;55.674;37.468;2022-08-21T14:54:25;17.95;;;7.50;;
49177;SDS011;35016;55.674;37.468;2022-08-21T14:57:01;17.38;;;10.57;;
49177;SDS011;35016;55.674;37.468;2022-08-21T14:59:41;13.50;;;6.65;;
49177;SDS011;35016;55.674;37.468;2022-08-21T15:02:12;11.43;;;6.93;;
49177;SDS011;35016;55.674;37.468;2022-08-21T15:04:39;11.15;;;5.57;;
49177;SDS011;35016;55.674;37.468;2022-08-21T15:07:10;11.90;;;5.82;;
49177;SDS011;35016;55.674;37.468;2022-08-21T15:09:37;11.63;;;5.25;;
49177;SDS011;35016;55.674;37.468;2022-08-21T15:12:05;10.88;;;5.65;;
49177;SDS011;35016;55.674;37.468;2022-08-21T15:14:34;11.20;;;5.30;;
49177;SDS011;35016;55.674;37.468;2022-08-21T15:17:05;9.65;;;5.15;;
49177;SDS011;35016;55.674;37.468;2022-08-21T15:19:34;9.77;;;4.93;;
49177;SDS011;35016;55.674;37.468;2022-08-21T15:22:02;10.52;;;5.18;;
49177;SDS011;35016;55.674;37.468;2022-08-21T15:24:30;9.73;;;4.68;;
49177;SDS011;35016;55.674;37.468;2022-08-21T15:26:59;11.88;;;5.35;;
49177;SDS011;35016;55.674;37.468;2022-08-21T15:29:28;9.90;;;5.68;;
49177;SDS011;35016;55.674;37.468;2022-08-21T15:32:03;12.30;;;5.38;;
49177;SDS011;35016;55.674;37.468;2022-08-21T15:34:47;8.57;;;4.22;;
49177;SDS011;35016;55.674;37.468;2022-08-21T15:37:14;11.60;;;3.67;;
49177;SDS011;35016;55.674;37.468;2022-08-21T15:39:48;8.07;;;4.60;;
49177;SDS011;35016;55.674;37.468;2022-08-21T15:44:47;9.48;;;3.47;;
49177;SDS011;35016;55.674;37.468;2022-08-21T15:47:15;10.50;;;3.50;;
49177;SDS011;35016;55.674;37.468;2022-08-21T15:49:47;7.82;;;3.60;;
49177;SDS011;35016;55.674;37.468;2022-08-21T15:52:16;9.13;;;3.45;;
49177;SDS011;35016;55.674;37.468;2022-08-21T15:54:58;9.65;;;3.53;;
49177;SDS011;35016;55.674;37.468;2022-08-21T15:57:26;7.93;;;2.97;;
49177;SDS011;35016;55.674;37.468;2022-08-21T16:04:10;7.32;;;2.70;;
49177;SDS011;35016;55.674;37.468;2022-08-21T16:06:44;9.45;;;2.65;;
49177;SDS011;35016;55.674;37.468;2022-08-21T16:09:21;10.77;;;2.00;;
49177;SDS011;35016;55.674;37.468;2022-08-21T16:11:49;8.45;;;2.70;;
49177;SDS011;35016;55.674;37.468;2022-08-21T16:14:16;12.30;;;3.28;;
49177;SDS011;35016;55.674;37.468;2022-08-21T16:16:44;5.72;;;1.85;;
49177;SDS011;35016;55.674;37.468;2022-08-21T16:22:56;7.57;;;2.08;;
49177;SDS011;35016;55.674;37.468;2022-08-21T16:25:39;5.65;;;1.67;;
49177;SDS011;35016;55.674;37.468;2022-08-21T16:28:21;5.70;;;2.13;;
49177;SDS011;35016;55.674;37.468;2022-08-21T16:31:01;6.28;;;2.78;;
49177;SDS011;35016;55.674;37.468;2022-08-21T16:33:49;4.97;;;1.52;;
49177;SDS011;35016;55.674;37.468;2022-08-21T16:36:26;5.78;;;2.20;;